createdAt,value
2023-05-19T00:01:15.369Z,12.26
2023-05-19T00:03:54.019Z,12.21
2023-05-19T00:06:25.594Z,12.13
2023-05-19T00:08:57.833Z,12.14
2023-05-19T00:11:26.711Z,12.10
2023-05-19T00:13:54.572Z,12.07
2023-05-19T00:16:22.935Z,12.07
2023-05-19T00:18:49.959Z,12.07
2023-05-19T00:21:17.072Z,12.08
2023-05-19T00:23:44.087Z,12.05
2023-05-19T00:26:11.148Z,11.97
2023-05-19T00:28:42.361Z,11.90
2023-05-19T00:31:09.329Z,11.86
2023-05-19T00:33:36.112Z,11.82
2023-05-19T00:36:04.197Z,11.73
2023-05-19T00:38:31.968Z,11.72
2023-05-19T00:40:59.370Z,11.64
2023-05-19T00:43:26.567Z,11.61
2023-05-19T00:45:53.485Z,11.56
2023-05-19T00:48:21.111Z,11.47
2023-05-19T00:50:48.295Z,11.48
2023-05-19T00:53:15.716Z,11.45
2023-05-19T00:55:43.045Z,11.38
2023-05-19T00:58:12.611Z,11.35
2023-05-19T01:00:40.029Z,11.33
2023-05-19T01:03:11.700Z,11.28
2023-05-19T01:05:41.892Z,11.22
2023-05-19T01:08:09.384Z,11.20
2023-05-19T01:10:36.889Z,11.15
2023-05-19T01:13:05.534Z,11.11
2023-05-19T01:15:52.562Z,11.06
2023-05-19T01:18:26.313Z,10.98
2023-05-19T01:21:03.941Z,10.95
2023-05-19T01:23:51.978Z,10.91
2023-05-19T01:26:49.733Z,10.89
2023-05-19T01:30:07.592Z,10.86
2023-05-19T01:32:34.993Z,10.80
2023-05-19T01:35:04.306Z,10.79
2023-05-19T01:37:31.613Z,10.74
2023-05-19T01:39:58.540Z,10.71
2023-05-19T01:42:25.431Z,10.69
2023-05-19T01:45:01.520Z,10.65
2023-05-19T01:47:28.503Z,10.65
2023-05-19T01:49:55.322Z,10.64
2023-05-19T01:52:22.108Z,10.60
2023-05-19T01:54:51.956Z,10.58
2023-05-19T01:57:35.430Z,10.55
2023-05-19T02:00:31.223Z,10.53
2023-05-19T02:03:31.741Z,10.50
2023-05-19T02:06:20.084Z,10.43
2023-05-19T02:08:57.926Z,10.42
2023-05-19T02:11:35.963Z,10.37
2023-05-19T02:14:06.638Z,10.34
2023-05-19T02:16:34.078Z,10.29
2023-05-19T02:19:01.154Z,10.24
2023-05-19T02:21:28.112Z,10.18
2023-05-19T02:23:55.328Z,10.13
2023-05-19T02:26:23.015Z,10.09
2023-05-19T02:28:52.853Z,10.03
2023-05-19T02:31:19.667Z,10.00
2023-05-19T02:33:46.481Z,9.95
2023-05-19T02:36:14.758Z,9.98
2023-05-19T02:38:41.560Z,9.93
2023-05-19T06:38:02.172Z,13.84
2023-05-19T06:40:29.862Z,14.27
2023-05-19T06:42:56.921Z,14.70
2023-05-19T06:45:56.006Z,15.08
2023-05-19T06:48:25.065Z,15.43
2023-05-19T06:50:52.344Z,15.54
2023-05-19T06:53:20.294Z,15.97
2023-05-19T06:55:58.679Z,16.17
2023-05-19T06:58:27.974Z,16.33
2023-05-19T07:00:55.780Z,16.75
2023-05-19T07:03:26.290Z,16.92
2023-05-19T07:05:54.475Z,16.86
2023-05-19T07:08:21.279Z,16.88
2023-05-19T07:10:48.190Z,17.08
2023-05-19T07:13:17.078Z,17.37
2023-05-19T07:15:44.166Z,17.55
2023-05-19T07:18:11.227Z,17.72
2023-05-19T07:20:38.082Z,18.16
2023-05-19T07:23:05.605Z,18.17
2023-05-19T07:25:33.467Z,18.59
2023-05-19T07:28:00.347Z,18.55
2023-05-19T07:30:28.915Z,18.75
2023-05-19T07:32:55.924Z,18.84
2023-05-19T07:35:25.574Z,18.96
2023-05-19T07:37:52.714Z,19.31
2023-05-19T07:40:19.942Z,19.35
2023-05-19T07:42:47.013Z,19.28
2023-05-19T07:45:13.757Z,19.41
2023-05-19T07:47:41.476Z,19.56
2023-05-19T07:50:08.599Z,19.59
2023-05-19T07:52:35.473Z,19.60
2023-05-19T07:55:02.395Z,19.66
2023-05-19T07:57:29.140Z,19.90
2023-05-19T07:59:56.043Z,19.78
2023-05-19T08:02:22.908Z,19.90
2023-05-19T08:04:49.785Z,19.94
2023-05-19T08:07:16.728Z,19.98
2023-05-19T08:09:43.811Z,19.98
2023-05-19T08:12:10.699Z,20.05
2023-05-19T08:14:37.730Z,20.40
2023-05-19T08:17:04.581Z,20.49
2023-05-19T08:19:31.603Z,19.93
2023-05-19T08:22:01.336Z,19.77
2023-05-19T08:24:32.970Z,20.15
2023-05-19T08:26:59.897Z,20.08
2023-05-19T08:29:26.714Z,20.14
2023-05-19T08:31:53.785Z,20.18
2023-05-19T08:34:20.991Z,20.16
2023-05-19T08:36:48.106Z,20.18
2023-05-19T08:39:16.502Z,20.10
2023-05-19T08:41:43.461Z,20.16
2023-05-19T08:44:10.355Z,19.81
2023-05-19T08:46:37.406Z,19.83
2023-05-19T08:49:09.643Z,19.72
2023-05-19T08:51:49.717Z,19.69
2023-05-19T08:54:18.277Z,19.66
2023-05-19T08:56:48.384Z,19.84
2023-05-19T08:59:16.593Z,19.98
2023-05-19T09:01:46.929Z,19.70
2023-05-19T09:04:14.313Z,19.56
2023-05-19T09:06:41.375Z,19.47
2023-05-19T09:09:08.772Z,19.32
2023-05-19T09:11:37.794Z,19.37
2023-05-19T09:14:05.932Z,19.37
2023-05-19T09:16:34.313Z,19.32
2023-05-19T09:19:01.704Z,19.49
2023-05-19T09:21:31.417Z,19.54
2023-05-19T09:23:59.626Z,19.61
2023-05-19T09:26:36.721Z,19.41
2023-05-19T09:29:11.345Z,19.38
2023-05-19T09:31:38.363Z,19.41
2023-05-19T09:34:05.373Z,19.41
2023-05-19T09:36:32.393Z,19.58
2023-05-19T09:38:59.299Z,19.94
2023-05-19T09:41:26.648Z,20.03
2023-05-19T09:43:56.646Z,20.27
2023-05-19T09:46:30.479Z,20.11
2023-05-19T09:48:58.787Z,20.43
2023-05-19T09:51:25.952Z,20.95
2023-05-19T09:53:53.780Z,21.29
2023-05-19T09:56:23.958Z,21.57
2023-05-19T09:58:50.984Z,21.96
2023-05-19T10:01:18.406Z,22.22
2023-05-19T10:03:45.644Z,22.54
2023-05-19T10:06:12.846Z,22.94
2023-05-19T10:08:39.949Z,23.36
2023-05-19T10:11:07.133Z,23.36
2023-05-19T10:13:36.402Z,23.46
2023-05-19T10:16:03.808Z,23.40
2023-05-19T10:18:31.350Z,23.14
2023-05-19T10:20:59.295Z,22.73
2023-05-19T10:23:26.467Z,22.09
2023-05-19T10:25:56.817Z,21.87
2023-05-19T10:28:26.889Z,21.90
2023-05-19T10:30:56.015Z,21.92
2023-05-19T10:33:32.226Z,21.79
2023-05-19T10:36:11.349Z,21.82
2023-05-19T10:38:53.605Z,21.80
2023-05-19T10:41:42.117Z,21.71
2023-05-19T10:44:30.810Z,21.77
2023-05-19T10:46:57.855Z,21.66
2023-05-19T10:49:24.639Z,21.72
2023-05-19T10:51:57.248Z,21.42
2023-05-19T10:54:41.223Z,20.91
2023-05-19T10:57:08.545Z,20.54
2023-05-19T10:59:38.053Z,20.80
2023-05-19T11:02:05.864Z,20.85
2023-05-19T11:04:51.651Z,20.97
2023-05-19T11:07:20.661Z,20.98
2023-05-19T11:09:53.805Z,21.15
2023-05-19T11:12:25.355Z,21.14
2023-05-19T11:14:53.879Z,21.16
2023-05-19T11:17:23.960Z,21.12
2023-05-19T11:19:57.841Z,21.19
2023-05-19T11:22:28.341Z,21.16
2023-05-19T11:24:56.165Z,21.14
2023-05-19T11:27:33.759Z,21.31
2023-05-19T11:30:16.143Z,21.28
2023-05-19T11:32:44.507Z,21.29
2023-05-19T11:35:11.630Z,21.28
2023-05-19T11:37:40.689Z,21.09
2023-05-19T11:40:08.217Z,21.17
2023-05-19T11:42:37.210Z,21.24
2023-05-19T11:45:05.074Z,21.35
2023-05-19T11:47:41.988Z,21.80
2023-05-19T11:50:12.818Z,21.92
2023-05-19T11:52:44.889Z,22.29
2023-05-19T11:55:16.154Z,22.43
2023-05-19T11:58:02.852Z,22.55
2023-05-19T12:00:37.458Z,22.34
2023-05-19T12:03:04.730Z,22.17
2023-05-19T12:05:34.431Z,22.22
2023-05-19T12:08:03.323Z,22.04
2023-05-19T12:10:31.977Z,21.72
2023-05-19T12:13:00.102Z,21.44
2023-05-19T12:15:26.975Z,21.75
2023-05-19T12:17:59.102Z,21.83
2023-05-19T12:20:27.015Z,21.82
2023-05-19T12:22:57.368Z,21.61
2023-05-19T12:25:25.005Z,21.35
2023-05-19T12:27:56.825Z,21.15
2023-05-19T12:30:31.576Z,21.15
2023-05-19T12:32:58.859Z,21.10
2023-05-19T12:35:30.420Z,21.34
2023-05-19T12:37:57.945Z,21.05
2023-05-19T12:40:26.055Z,21.18
2023-05-19T12:42:59.451Z,21.11
2023-05-19T12:45:28.407Z,21.04
2023-05-19T12:47:56.446Z,21.17
2023-05-19T12:50:30.384Z,21.22
2023-05-19T12:52:59.949Z,21.31
2023-05-19T12:55:27.051Z,21.55
2023-05-19T12:57:57.484Z,21.63
2023-05-19T13:00:32.874Z,21.48
2023-05-19T13:03:01.044Z,21.45
2023-05-19T13:05:29.387Z,21.13
2023-05-19T13:08:02.472Z,21.03
2023-05-19T13:10:30.015Z,21.01
2023-05-19T13:12:58.235Z,20.96
2023-05-19T13:15:26.921Z,21.17
2023-05-19T13:17:54.656Z,21.18
2023-05-19T13:20:22.014Z,20.95
2023-05-19T13:22:49.264Z,20.83
2023-05-19T13:25:16.242Z,20.69
2023-05-19T13:27:44.574Z,20.66
2023-05-19T13:30:12.098Z,20.71
2023-05-19T13:32:39.024Z,20.57
2023-05-19T13:35:07.174Z,20.39
2023-05-19T13:37:34.105Z,20.39
2023-05-19T13:40:01.723Z,20.46
2023-05-19T13:42:28.580Z,20.45
2023-05-19T13:44:58.848Z,20.41
2023-05-19T13:47:25.974Z,20.37
2023-05-19T13:49:53.217Z,20.29
2023-05-19T13:52:23.784Z,20.29
2023-05-19T13:54:50.982Z,20.29
2023-05-19T13:57:17.949Z,20.12
2023-05-19T14:00:00.064Z,19.88
2023-05-19T14:02:28.548Z,19.93
2023-05-19T14:04:56.120Z,20.03
2023-05-19T14:07:22.924Z,19.84
2023-05-19T14:09:51.428Z,19.78
2023-05-19T14:12:18.678Z,19.78
2023-05-19T14:14:48.543Z,19.81
2023-05-19T14:17:15.424Z,19.99
2023-05-19T14:19:42.392Z,20.15
2023-05-19T14:22:09.383Z,20.23
2023-05-19T14:24:36.385Z,20.09
2023-05-19T14:27:03.244Z,20.16
2023-05-19T14:29:31.432Z,20.07
2023-05-19T14:31:58.427Z,20.03
2023-05-19T14:34:25.581Z,20.05
2023-05-19T14:36:52.473Z,20.12
2023-05-19T14:39:19.408Z,20.10
2023-05-19T14:41:46.363Z,19.99
2023-05-19T14:44:13.725Z,20.06
2023-05-19T14:46:40.586Z,20.19
2023-05-19T14:49:07.965Z,19.91
2023-05-19T14:51:34.740Z,19.85
2023-05-19T14:54:02.492Z,19.73
2023-05-19T14:56:29.411Z,19.70
2023-05-19T14:58:56.694Z,19.83
2023-05-19T15:01:23.632Z,19.82
2023-05-19T15:03:50.615Z,19.96
2023-05-19T15:06:17.413Z,19.93
2023-05-19T15:08:44.168Z,20.02
2023-05-19T15:11:11.096Z,20.05
2023-05-19T15:13:37.892Z,20.10
2023-05-19T15:16:15.650Z,19.91
2023-05-19T15:18:44.186Z,19.91
2023-05-19T15:21:11.140Z,19.82
2023-05-19T15:23:37.952Z,19.61
2023-05-19T15:26:04.771Z,19.70
2023-05-19T15:28:32.374Z,19.67
2023-05-19T15:30:59.262Z,19.49
2023-05-19T15:33:26.564Z,19.46
2023-05-19T15:35:53.556Z,19.50
2023-05-19T15:38:20.615Z,19.66
2023-05-19T15:40:47.469Z,19.53
2023-05-19T15:43:14.444Z,19.49
2023-05-19T15:45:41.220Z,19.53
2023-05-19T15:48:08.623Z,19.48
2023-05-19T15:50:35.883Z,19.28
2023-05-19T15:53:03.000Z,19.40
2023-05-19T15:55:29.920Z,19.33
2023-05-19T15:57:56.974Z,19.35
2023-05-19T16:00:23.830Z,19.33
2023-05-19T16:02:51.253Z,19.26
2023-05-19T16:05:18.319Z,19.31
2023-05-19T16:07:45.378Z,19.30
2023-05-19T16:10:12.260Z,19.06
2023-05-19T16:12:39.144Z,18.94
2023-05-19T16:15:06.450Z,18.87
2023-05-19T16:17:33.746Z,18.76
2023-05-19T16:20:00.576Z,18.79
2023-05-19T16:22:27.680Z,18.80
2023-05-19T16:24:54.440Z,18.66
2023-05-19T16:27:21.327Z,18.61
2023-05-19T16:29:49.221Z,18.58
2023-05-19T16:32:16.223Z,18.69
2023-05-19T16:34:43.034Z,18.73
2023-05-19T16:37:09.995Z,18.77
2023-05-19T16:39:40.527Z,18.65
2023-05-19T16:42:07.564Z,18.72
2023-05-19T16:44:34.353Z,18.63
2023-05-19T16:47:01.167Z,18.44
2023-05-19T16:49:28.079Z,18.49
2023-05-19T16:51:55.991Z,18.62
2023-05-19T16:54:23.623Z,18.69
2023-05-19T16:56:51.471Z,18.57
2023-05-19T16:59:18.331Z,18.45
2023-05-19T17:01:45.362Z,18.31
2023-05-19T17:04:12.159Z,18.35
2023-05-19T17:06:39.138Z,18.38
2023-05-19T17:09:06.176Z,18.43
2023-05-19T17:11:33.124Z,18.38
2023-05-19T17:14:00.075Z,18.34
2023-05-19T17:16:27.091Z,18.29
2023-05-19T17:18:54.529Z,18.37
2023-05-19T17:21:21.827Z,18.22
2023-05-19T17:23:49.655Z,18.30
2023-05-19T17:26:17.462Z,18.34
2023-05-19T17:28:44.853Z,18.26
2023-05-19T17:31:12.885Z,18.19
2023-05-19T17:33:39.814Z,17.98
2023-05-19T17:36:07.659Z,18.03
2023-05-19T17:38:34.774Z,17.98
2023-05-19T17:41:02.483Z,18.14
2023-05-19T17:43:29.442Z,18.05
2023-05-19T17:45:58.152Z,18.03
2023-05-19T17:48:26.084Z,18.00
2023-05-19T17:50:52.933Z,18.12
2023-05-19T17:53:20.082Z,18.17
2023-05-19T17:55:51.505Z,18.33
2023-05-19T17:58:19.334Z,18.18
2023-05-19T18:00:46.380Z,18.22
2023-05-19T18:03:13.621Z,18.12
2023-05-19T18:05:41.426Z,17.92
2023-05-19T18:08:09.644Z,17.86
2023-05-19T18:10:37.842Z,17.83
2023-05-19T18:13:05.783Z,17.85
2023-05-19T18:15:32.568Z,17.97
2023-05-19T18:17:59.477Z,17.75
2023-05-19T18:20:26.406Z,17.55
2023-05-19T18:22:53.296Z,17.58
2023-05-19T18:25:21.136Z,17.46
2023-05-19T18:27:48.087Z,17.53
2023-05-19T18:30:14.986Z,17.46
2023-05-19T18:32:41.906Z,17.54
2023-05-19T18:35:09.973Z,17.61
2023-05-19T18:37:37.083Z,17.57
2023-05-19T18:40:04.040Z,17.67
2023-05-19T18:42:30.865Z,17.51
2023-05-19T18:44:58.082Z,17.36
2023-05-19T18:47:25.083Z,17.52
2023-05-19T18:49:51.953Z,17.44
2023-05-19T18:52:20.095Z,17.36
2023-05-19T18:54:47.551Z,17.25
2023-05-19T18:57:14.804Z,17.13
2023-05-19T18:59:41.618Z,17.33
2023-05-19T19:02:08.563Z,17.39
2023-05-19T19:04:35.696Z,17.41
2023-05-19T19:07:02.659Z,17.46
2023-05-19T19:09:29.955Z,17.29
2023-05-19T19:11:56.773Z,16.87
2023-05-19T19:14:23.575Z,16.97
2023-05-19T19:16:50.707Z,17.00
2023-05-19T19:19:17.568Z,17.14
2023-05-19T19:21:44.458Z,17.20
2023-05-19T19:24:11.511Z,17.19
2023-05-19T19:26:38.566Z,17.35
2023-05-19T19:29:05.515Z,17.19
2023-05-19T19:31:33.608Z,17.13
2023-05-19T19:34:03.885Z,17.18
2023-05-19T19:36:32.104Z,17.18
2023-05-19T19:38:59.084Z,17.07
2023-05-19T19:41:26.971Z,17.14
2023-05-19T19:43:54.073Z,17.20
2023-05-19T19:46:20.966Z,17.05
2023-05-19T19:48:48.190Z,16.89
2023-05-19T19:51:15.008Z,16.96
2023-05-19T19:53:41.938Z,16.90
2023-05-19T19:56:08.789Z,17.04
2023-05-19T19:58:35.696Z,17.08
2023-05-19T20:01:03.835Z,17.09
2023-05-19T20:03:31.883Z,17.00
2023-05-19T20:05:59.169Z,16.89
2023-05-19T20:08:26.561Z,16.84
2023-05-19T20:10:53.484Z,16.88
2023-05-19T20:13:20.577Z,16.81
2023-05-19T20:15:47.497Z,16.85
2023-05-19T20:18:15.488Z,16.82
2023-05-19T20:20:42.895Z,16.77
2023-05-19T20:23:09.855Z,16.67
2023-05-19T20:25:57.799Z,16.67
2023-05-19T20:28:26.113Z,16.61
2023-05-19T20:30:53.012Z,16.63
2023-05-19T20:33:19.875Z,16.58
2023-05-19T20:35:46.636Z,16.56
2023-05-19T20:38:13.574Z,16.41
2023-05-19T20:40:40.456Z,16.46
2023-05-19T20:43:07.367Z,16.34
2023-05-19T20:45:34.363Z,16.37
2023-05-19T20:48:02.937Z,16.39
2023-05-19T20:50:29.968Z,16.37
2023-05-19T20:52:56.834Z,16.30
2023-05-19T20:55:23.731Z,16.31
2023-05-19T20:57:50.604Z,16.27
2023-05-19T21:00:17.865Z,16.22
2023-05-19T21:02:45.072Z,16.16
2023-05-19T21:05:12.079Z,16.09
2023-05-19T21:07:38.972Z,16.05
2023-05-19T21:10:06.567Z,15.96
2023-05-19T21:12:34.540Z,15.90
2023-05-19T21:15:02.020Z,15.75
2023-05-19T21:17:29.193Z,15.69
2023-05-19T21:19:59.605Z,15.70
2023-05-19T21:22:26.975Z,15.59
2023-05-19T21:24:54.434Z,15.60
2023-05-19T21:27:21.374Z,15.57
2023-05-19T21:29:52.579Z,15.51
2023-05-19T21:32:19.793Z,15.49
2023-05-19T21:34:46.677Z,15.43
